createdAt,value
2022-12-18T00:00:58.559Z,12.25
2022-12-18T00:02:01.025Z,11.27
2022-12-18T00:03:03.571Z,13.05
2022-12-18T00:04:16.036Z,11.30
2022-12-18T00:05:18.595Z,11.75
2022-12-18T00:06:24.951Z,11.15
2022-12-18T00:07:27.267Z,11.35
2022-12-18T00:08:29.871Z,11.82
2022-12-18T00:09:39.825Z,11.25
2022-12-18T00:10:43.345Z,11.20
2022-12-18T00:11:47.028Z,11.63
2022-12-18T00:12:49.689Z,10.95
2022-12-18T00:13:54.404Z,12.30
2022-12-18T00:14:56.885Z,11.77
2022-12-18T00:16:04.753Z,12.02
2022-12-18T00:17:08.003Z,12.13
2022-12-18T00:18:14.844Z,12.35
2022-12-18T00:19:18.958Z,12.60
2022-12-18T00:20:26.544Z,12.40
2022-12-18T00:21:33.536Z,10.93
2022-12-18T00:22:36.060Z,13.52
2022-12-18T00:23:40.016Z,14.15
2022-12-18T00:24:43.142Z,12.98
2022-12-18T00:25:45.779Z,12.95
2022-12-18T00:26:52.623Z,11.90
2022-12-18T00:27:55.418Z,13.07
2022-12-18T00:29:03.396Z,12.02
2022-12-18T00:30:09.346Z,11.48
2022-12-18T00:31:14.842Z,12.68
2022-12-18T00:32:17.285Z,11.88
2022-12-18T00:33:19.720Z,12.63
2022-12-18T00:34:22.027Z,13.20
2022-12-18T00:35:24.414Z,13.13
2022-12-18T00:36:30.263Z,13.23
2022-12-18T00:37:34.003Z,13.10
2022-12-18T00:38:37.262Z,12.23
2022-12-18T00:39:42.756Z,12.35
2022-12-18T00:40:51.208Z,12.30
2022-12-18T00:42:14.088Z,12.52
2022-12-18T00:43:16.649Z,13.20
2022-12-18T00:44:19.700Z,12.90
2022-12-18T00:45:23.301Z,12.98
2022-12-18T00:46:25.642Z,14.00
2022-12-18T00:47:27.972Z,15.95
2022-12-18T00:48:30.393Z,14.63
2022-12-18T00:49:32.949Z,18.17
2022-12-18T00:50:35.320Z,16.08
2022-12-18T00:51:38.187Z,14.20
2022-12-18T00:52:40.568Z,13.68
2022-12-18T00:53:43.022Z,13.88
2022-12-18T00:54:45.352Z,13.82
2022-12-18T00:55:48.277Z,12.20
2022-12-18T00:56:51.835Z,13.05
2022-12-18T00:57:54.181Z,13.48
2022-12-18T00:58:56.658Z,12.90
2022-12-18T00:59:59.125Z,13.80
2022-12-18T01:01:01.492Z,15.02
2022-12-18T01:02:04.792Z,14.95
2022-12-18T01:03:07.757Z,14.63
2022-12-18T01:04:10.730Z,36.83
2022-12-18T01:05:14.737Z,91.63
2022-12-18T01:06:18.094Z,39.08
2022-12-18T01:07:21.017Z,24.23
2022-12-18T01:08:24.136Z,20.83
2022-12-18T01:09:27.257Z,17.67
2022-12-18T01:10:30.638Z,16.88
2022-12-18T01:11:34.938Z,16.20
2022-12-18T01:12:37.693Z,15.93
2022-12-18T01:13:40.884Z,14.50
2022-12-18T01:14:43.745Z,15.50
2022-12-18T01:15:50.643Z,14.07
2022-12-18T01:16:53.062Z,16.30
2022-12-18T01:17:55.756Z,14.82
2022-12-18T01:18:58.154Z,15.05
2022-12-18T01:20:03.699Z,13.80
2022-12-18T01:21:14.099Z,14.40
2022-12-18T01:22:16.671Z,14.18
2022-12-18T01:23:20.835Z,14.65
2022-12-18T01:24:23.363Z,14.77
2022-12-18T01:25:26.109Z,14.70
2022-12-18T01:26:30.486Z,15.98
2022-12-18T01:27:34.832Z,15.35
2022-12-18T01:28:40.995Z,14.68
2022-12-18T01:29:44.593Z,14.65
2022-12-18T01:30:47.179Z,13.13
2022-12-18T01:31:49.939Z,14.15
2022-12-18T01:32:53.221Z,13.95
2022-12-18T01:33:56.634Z,14.00
2022-12-18T01:34:59.495Z,14.27
2022-12-18T01:36:03.685Z,13.70
2022-12-18T01:37:06.971Z,12.40
2022-12-18T01:38:09.755Z,12.75
2022-12-18T01:39:13.947Z,13.13
2022-12-18T01:40:17.902Z,14.65
2022-12-18T01:41:23.773Z,13.48
2022-12-18T01:42:26.784Z,13.00
2022-12-18T01:43:43.122Z,13.07
2022-12-18T01:45:10.466Z,13.30
2022-12-18T01:46:13.299Z,13.15
2022-12-18T01:47:47.568Z,13.63
2022-12-18T01:48:57.593Z,12.32
2022-12-18T01:50:07.143Z,13.13
2022-12-18T01:51:11.631Z,13.65
2022-12-18T01:52:14.717Z,13.10
2022-12-18T01:53:24.691Z,14.10
2022-12-18T01:54:31.010Z,12.77
2022-12-18T01:55:40.767Z,13.23
2022-12-18T01:56:43.158Z,12.50
2022-12-18T01:57:45.996Z,12.93
2022-12-18T01:58:54.313Z,13.57
2022-12-18T02:00:02.637Z,13.68
2022-12-18T02:01:15.703Z,13.48
2022-12-18T02:02:19.266Z,12.50
2022-12-18T02:03:21.743Z,13.10
2022-12-18T02:04:26.672Z,13.15
2022-12-18T02:05:56.696Z,13.27
2022-12-18T02:07:02.572Z,12.95
2022-12-18T02:08:27.521Z,13.15
2022-12-18T02:09:38.994Z,12.23
2022-12-18T02:12:14.609Z,11.48
2022-12-18T02:13:37.929Z,12.48
2022-12-18T02:14:59.769Z,11.52
2022-12-18T02:16:11.979Z,12.32
2022-12-18T02:17:39.462Z,12.30
2022-12-18T02:18:50.004Z,11.45
2022-12-18T02:20:12.139Z,11.95
2022-12-18T02:21:54.551Z,12.83
2022-12-18T02:23:15.725Z,12.15
2022-12-18T02:24:24.131Z,12.02
2022-12-18T02:26:11.920Z,11.43
2022-12-18T02:27:14.605Z,11.35
2022-12-18T02:28:19.566Z,11.95
2022-12-18T02:29:28.408Z,12.90
2022-12-18T02:30:33.959Z,13.32
2022-12-18T02:31:45.468Z,12.48
2022-12-18T02:32:52.055Z,11.95
2022-12-18T02:33:57.499Z,12.05
2022-12-18T02:35:01.945Z,11.95
2022-12-18T02:36:07.329Z,12.85
2022-12-18T02:37:14.698Z,12.30
2022-12-18T02:38:18.718Z,11.98
2022-12-18T02:39:27.936Z,13.20
2022-12-18T02:40:39.220Z,11.95
2022-12-18T02:41:42.279Z,12.85
2022-12-18T02:42:44.743Z,12.82
2022-12-18T02:43:57.432Z,12.18
2022-12-18T02:45:00.213Z,12.82
2022-12-18T02:46:26.634Z,12.45
2022-12-18T02:47:33.612Z,12.38
2022-12-18T02:48:36.393Z,11.38
2022-12-18T02:49:58.347Z,11.25
2022-12-18T02:51:24.932Z,10.77
2022-12-18T02:52:37.513Z,11.52
2022-12-18T02:53:49.903Z,11.75
2022-12-18T02:55:19.852Z,11.85
2022-12-18T02:56:34.604Z,11.60
2022-12-18T02:57:45.022Z,11.50
2022-12-18T02:59:08.426Z,11.20
2022-12-18T03:00:22.743Z,11.68
2022-12-18T03:01:39.245Z,13.38
2022-12-18T03:03:13.928Z,12.02
2022-12-18T03:04:34.792Z,12.27
2022-12-18T03:05:49.610Z,12.20
2022-12-18T03:06:56.784Z,12.43
2022-12-18T03:08:25.277Z,11.27
2022-12-18T03:09:37.642Z,12.18
2022-12-18T03:10:52.255Z,12.23
2022-12-18T03:12:17.826Z,11.65
2022-12-18T03:13:38.401Z,12.15
2022-12-18T03:14:42.824Z,11.68
2022-12-18T03:15:54.029Z,12.50
2022-12-18T03:17:01.770Z,11.80
2022-12-18T03:18:13.563Z,13.02
2022-12-18T03:19:25.148Z,11.77
2022-12-18T03:20:31.977Z,11.70
2022-12-18T03:21:42.052Z,11.20
2022-12-18T03:22:48.197Z,11.35
2022-12-18T03:23:52.787Z,10.70
2022-12-18T03:24:58.540Z,9.93
2022-12-18T03:26:07.734Z,11.77
2022-12-18T03:27:15.762Z,10.70
2022-12-18T03:28:22.523Z,11.98
2022-12-18T03:29:39.786Z,11.48
2022-12-18T03:30:47.036Z,12.27
2022-12-18T03:31:55.848Z,12.05
2022-12-18T03:33:08.617Z,11.13
2022-12-18T03:34:20.580Z,12.32
2022-12-18T03:35:29.541Z,10.98
2022-12-18T03:36:33.237Z,10.88
2022-12-18T03:37:37.564Z,11.80
2022-12-18T03:38:40.304Z,11.60
2022-12-18T03:39:44.303Z,10.60
2022-12-18T03:41:00.894Z,11.57
2022-12-18T03:42:20.197Z,11.85
2022-12-18T03:44:04.567Z,10.80
2022-12-18T03:45:34.002Z,11.43
2022-12-18T03:46:49.452Z,9.77
2022-12-18T03:48:06.992Z,10.88
2022-12-18T03:49:44.020Z,10.05
2022-12-18T03:50:49.293Z,10.48
2022-12-18T03:52:03.993Z,10.88
2022-12-18T03:53:17.376Z,10.57
2022-12-18T03:54:23.023Z,10.85
2022-12-18T03:55:35.280Z,11.85
2022-12-18T03:56:52.712Z,11.82
2022-12-18T03:57:57.840Z,10.85
2022-12-18T03:59:04.092Z,11.55
2022-12-18T04:00:16.518Z,12.13
2022-12-18T04:01:37.242Z,12.18
2022-12-18T04:02:45.709Z,11.35
2022-12-18T04:03:52.331Z,10.80
2022-12-18T04:05:00.317Z,11.68
2022-12-18T04:06:04.475Z,11.35
2022-12-18T04:07:09.049Z,11.45
2022-12-18T04:08:14.500Z,11.38
2022-12-18T04:09:20.966Z,10.95
2022-12-18T04:10:24.316Z,11.45
2022-12-18T04:11:27.378Z,12.02
2022-12-18T04:12:30.994Z,12.00
2022-12-18T04:13:37.559Z,12.45
2022-12-18T04:14:44.362Z,10.27
2022-12-18T04:15:47.130Z,11.65
2022-12-18T04:16:51.086Z,10.50
2022-12-18T04:17:57.196Z,10.75
2022-12-18T04:19:01.633Z,11.48
2022-12-18T04:20:07.636Z,11.38
2022-12-18T04:21:11.461Z,11.45
2022-12-18T04:22:14.003Z,10.63
2022-12-18T04:23:20.268Z,10.77
2022-12-18T04:24:23.205Z,12.50
2022-12-18T04:25:38.946Z,10.73
2022-12-18T04:26:44.647Z,10.35
2022-12-18T04:27:51.491Z,11.43
2022-12-18T04:28:53.934Z,10.95
2022-12-18T04:29:56.768Z,10.50
2022-12-18T04:30:59.222Z,10.57
2022-12-18T04:32:01.685Z,10.93
2022-12-18T04:33:10.879Z,11.13
2022-12-18T04:34:13.955Z,10.38
2022-12-18T04:35:23.892Z,11.77
2022-12-18T04:36:27.685Z,10.70
2022-12-18T04:37:31.092Z,11.15
2022-12-18T04:38:33.753Z,11.20
2022-12-18T04:39:42.105Z,11.85
2022-12-18T04:40:51.272Z,10.95
2022-12-18T04:42:00.355Z,10.98
2022-12-18T04:43:03.619Z,10.77
2022-12-18T04:44:06.401Z,11.00
2022-12-18T04:45:09.265Z,11.32
2022-12-18T04:46:11.713Z,10.40
2022-12-18T04:47:14.356Z,10.45
2022-12-18T04:48:16.781Z,11.82
2022-12-18T04:49:19.782Z,11.02
2022-12-18T04:50:22.477Z,10.05
2022-12-18T04:51:26.788Z,9.80
2022-12-18T04:52:32.556Z,11.70
2022-12-18T04:53:35.079Z,11.13
2022-12-18T04:54:37.635Z,10.40
2022-12-18T04:55:39.973Z,10.73
2022-12-18T04:56:42.605Z,10.95
2022-12-18T04:57:47.220Z,10.48
2022-12-18T04:58:50.073Z,11.05
2022-12-18T04:59:52.680Z,10.65
2022-12-18T05:00:56.247Z,10.98
2022-12-18T05:01:59.307Z,11.27
2022-12-18T05:03:03.365Z,11.60
2022-12-18T05:04:06.350Z,11.10
2022-12-18T05:05:09.417Z,10.98
2022-12-18T05:06:12.071Z,11.52
2022-12-18T05:07:14.389Z,10.93
2022-12-18T05:08:16.878Z,11.50
2022-12-18T05:09:19.224Z,10.82
2022-12-18T05:10:21.928Z,11.82
2022-12-18T05:11:24.595Z,12.63
2022-12-18T05:12:27.006Z,10.60
2022-12-18T05:13:30.089Z,11.32
2022-12-18T05:14:32.557Z,11.13
2022-12-18T05:15:35.438Z,11.68
2022-12-18T05:16:37.805Z,15.32
2022-12-18T05:17:40.119Z,14.25
2022-12-18T05:18:42.747Z,15.05
2022-12-18T05:19:45.044Z,160.98
2022-12-18T05:20:48.245Z,284.00
2022-12-18T05:21:50.714Z,156.70
2022-12-18T05:22:53.152Z,103.78
2022-12-18T05:23:55.480Z,75.82
2022-12-18T05:24:58.841Z,68.60
2022-12-18T05:26:04.080Z,52.15
2022-12-18T05:27:06.663Z,43.60
2022-12-18T05:28:08.982Z,43.20
2022-12-18T05:29:13.170Z,36.90
2022-12-18T05:30:17.400Z,31.77
2022-12-18T05:31:19.953Z,29.45
2022-12-18T05:32:25.078Z,28.42
2022-12-18T05:33:31.343Z,29.55
2022-12-18T05:34:34.398Z,29.17
2022-12-18T05:35:36.976Z,28.17
2022-12-18T05:36:39.440Z,26.73
2022-12-18T05:37:43.375Z,24.48
2022-12-18T05:38:46.019Z,23.92
2022-12-18T05:39:48.364Z,24.02
2022-12-18T05:40:51.885Z,21.40
2022-12-18T05:41:54.325Z,19.92
2022-12-18T05:42:56.709Z,20.15
2022-12-18T05:43:59.979Z,19.50
2022-12-18T05:45:02.366Z,19.42
2022-12-18T05:46:09.747Z,18.85
2022-12-18T05:47:12.175Z,17.48
2022-12-18T05:48:16.634Z,17.40
2022-12-18T05:49:19.367Z,123.60
2022-12-18T05:50:21.745Z,116.55
2022-12-18T05:51:25.193Z,81.90
2022-12-18T05:52:27.521Z,70.30
2022-12-18T05:53:29.877Z,60.70
2022-12-18T05:54:32.206Z,56.33
2022-12-18T05:55:35.984Z,46.70
2022-12-18T05:56:38.411Z,39.35
2022-12-18T05:57:40.859Z,35.13
2022-12-18T05:58:43.631Z,31.42
2022-12-18T05:59:46.231Z,26.73
2022-12-18T06:00:48.959Z,24.77
2022-12-18T06:01:51.617Z,23.85
2022-12-18T06:02:54.131Z,22.42
2022-12-18T06:03:56.742Z,21.55
2022-12-18T06:04:59.675Z,21.35
2022-12-18T06:06:02.772Z,20.80
2022-12-18T06:07:06.344Z,20.38
2022-12-18T06:08:09.719Z,21.67
2022-12-18T06:09:12.847Z,21.20
2022-12-18T06:10:15.259Z,21.65
2022-12-18T06:11:20.962Z,20.55
2022-12-18T06:12:23.345Z,21.50
2022-12-18T06:13:25.817Z,19.50
2022-12-18T06:14:32.944Z,20.17
2022-12-18T06:15:38.610Z,20.25
2022-12-18T06:16:40.971Z,19.25
2022-12-18T06:17:43.987Z,19.90
2022-12-18T06:18:49.862Z,21.00
2022-12-18T06:19:52.367Z,19.13
2022-12-18T06:20:58.592Z,18.95
2022-12-18T06:22:00.956Z,19.75
2022-12-18T06:23:03.714Z,18.20
2022-12-18T06:24:07.929Z,18.65
2022-12-18T06:25:14.075Z,19.65
2022-12-18T06:26:17.376Z,18.55
2022-12-18T06:27:20.443Z,17.88
2022-12-18T06:28:23.334Z,19.33
2022-12-18T06:29:26.442Z,18.45
2022-12-18T06:30:28.946Z,18.90
2022-12-18T06:31:31.353Z,435.30
2022-12-18T06:32:33.697Z,260.60
2022-12-18T06:33:36.633Z,240.13
2022-12-18T06:34:39.187Z,176.35
2022-12-18T06:35:41.967Z,122.18
2022-12-18T06:36:44.359Z,85.60
2022-12-18T06:37:46.734Z,72.10
2022-12-18T06:38:49.296Z,67.57
2022-12-18T06:39:51.677Z,58.88
2022-12-18T06:40:54.050Z,49.65
2022-12-18T06:41:56.486Z,44.35
2022-12-18T06:42:59.463Z,41.17
2022-12-18T06:44:01.848Z,37.40
2022-12-18T06:45:04.561Z,35.42
2022-12-18T06:46:07.315Z,35.08
2022-12-18T06:47:09.647Z,35.30
2022-12-18T06:48:13.036Z,35.92
2022-12-18T06:49:16.869Z,34.30
2022-12-18T06:50:19.243Z,35.03
2022-12-18T06:51:23.264Z,36.05
2022-12-18T06:52:25.622Z,34.47
2022-12-18T06:53:28.517Z,35.63
2022-12-18T06:54:31.028Z,35.58
2022-12-18T06:55:33.334Z,35.22
2022-12-18T06:56:35.804Z,34.85
2022-12-18T06:57:38.946Z,34.47
2022-12-18T06:58:41.376Z,35.28
2022-12-18T06:59:43.760Z,35.17
2022-12-18T07:00:46.085Z,33.85
2022-12-18T07:01:48.876Z,34.75
2022-12-18T07:02:51.575Z,33.50
2022-12-18T07:03:55.710Z,32.50
2022-12-18T07:04:58.003Z,35.38
2022-12-18T07:06:00.639Z,32.17
2022-12-18T07:07:03.017Z,33.80
2022-12-18T07:08:05.392Z,34.35
2022-12-18T07:09:08.152Z,35.70
2022-12-18T07:10:10.664Z,35.17
2022-12-18T07:11:13.691Z,33.40
2022-12-18T07:12:15.995Z,33.78
2022-12-18T07:13:18.337Z,31.75
2022-12-18T07:14:21.069Z,32.00
2022-12-18T07:15:23.433Z,34.30
2022-12-18T07:16:26.290Z,33.42
2022-12-18T07:17:29.345Z,33.33
2022-12-18T07:18:31.809Z,33.97
2022-12-18T07:19:34.812Z,34.17
2022-12-18T07:20:37.559Z,32.80
2022-12-18T07:21:40.075Z,30.33
2022-12-18T07:22:42.563Z,33.42
2022-12-18T07:23:47.187Z,31.65
2022-12-18T07:24:49.901Z,31.83
2022-12-18T07:25:52.286Z,30.77
2022-12-18T07:26:54.758Z,151.05
2022-12-18T07:27:57.154Z,89.22
2022-12-18T07:28:59.552Z,67.82
2022-12-18T07:30:02.148Z,63.33
2022-12-18T07:31:09.598Z,50.67
2022-12-18T07:32:12.069Z,44.85
2022-12-18T07:33:14.982Z,46.33
2022-12-18T07:34:17.404Z,43.35
2022-12-18T07:35:24.722Z,44.17
2022-12-18T07:36:28.013Z,40.55
2022-12-18T07:37:30.334Z,44.88
2022-12-18T07:38:33.673Z,41.58
2022-12-18T07:39:36.024Z,41.92
2022-12-18T07:40:38.479Z,41.53
2022-12-18T07:41:47.263Z,42.25
2022-12-18T07:42:51.875Z,40.65
2022-12-18T07:43:54.185Z,40.90
2022-12-18T07:44:56.507Z,38.72
2022-12-18T07:45:59.546Z,39.30
2022-12-18T07:47:01.969Z,37.95
2022-12-18T07:48:04.511Z,37.85
2022-12-18T07:49:07.082Z,40.75
2022-12-18T07:50:09.755Z,37.47
2022-12-18T07:51:13.500Z,36.85
2022-12-18T07:52:16.225Z,38.30
2022-12-18T07:53:18.554Z,36.30
2022-12-18T07:54:20.927Z,37.70
2022-12-18T07:55:23.298Z,36.25
2022-12-18T07:56:28.647Z,35.42
2022-12-18T07:57:50.090Z,36.70
2022-12-18T07:58:54.326Z,35.55
2022-12-18T07:59:56.688Z,35.85
2022-12-18T08:01:09.129Z,160.60
2022-12-18T08:02:11.645Z,87.18
2022-12-18T08:03:14.896Z,89.28
2022-12-18T08:04:17.428Z,87.97
2022-12-18T08:05:19.866Z,68.60
2022-12-18T08:06:23.908Z,51.00
2022-12-18T08:07:27.943Z,43.70
2022-12-18T08:08:30.784Z,41.47
2022-12-18T08:09:33.133Z,41.65
2022-12-18T08:10:35.655Z,38.15
2022-12-18T08:11:38.017Z,41.95
2022-12-18T08:12:40.436Z,43.75
2022-12-18T08:13:43.153Z,40.92
2022-12-18T08:14:45.772Z,40.20
2022-12-18T08:15:55.940Z,41.95
2022-12-18T08:16:58.779Z,40.65
2022-12-18T08:18:01.192Z,39.90
2022-12-18T08:19:04.214Z,41.10
2022-12-18T08:20:07.123Z,39.78
2022-12-18T08:21:14.449Z,41.47
2022-12-18T08:22:16.890Z,41.70
2022-12-18T08:23:19.612Z,39.53
2022-12-18T08:24:22.046Z,39.58
2022-12-18T08:25:24.450Z,39.13
2022-12-18T08:26:28.948Z,38.53
2022-12-18T08:27:31.379Z,37.83
2022-12-18T08:28:34.567Z,37.78
2022-12-18T08:29:36.929Z,37.60
2022-12-18T08:30:39.394Z,38.85
2022-12-18T08:31:42.026Z,38.25
2022-12-18T08:32:44.423Z,38.47
2022-12-18T08:33:53.141Z,36.42
2022-12-18T08:34:56.108Z,73.38
2022-12-18T08:36:00.560Z,132.95
2022-12-18T08:37:03.920Z,103.43
2022-12-18T08:38:06.295Z,91.95
2022-12-18T08:39:08.653Z,72.63
2022-12-18T08:40:11.502Z,65.45
2022-12-18T08:41:16.079Z,63.55
2022-12-18T08:42:38.264Z,61.47
2022-12-18T08:43:59.963Z,54.45
2022-12-18T08:46:04.864Z,50.13
2022-12-18T08:47:08.640Z,47.40
2022-12-18T08:48:11.074Z,50.67
2022-12-18T08:49:13.592Z,50.22
2022-12-18T08:50:16.001Z,44.65
2022-12-18T08:51:18.701Z,49.20
2022-12-18T08:52:21.122Z,46.65
2022-12-18T08:53:27.561Z,47.08
2022-12-18T08:54:32.642Z,46.08
2022-12-18T08:55:35.065Z,47.80
2022-12-18T08:56:37.371Z,46.13
2022-12-18T08:57:39.704Z,45.10
2022-12-18T08:58:43.531Z,45.28
2022-12-18T08:59:45.780Z,44.67
2022-12-18T09:00:48.195Z,44.47
2022-12-18T09:01:50.673Z,43.58
2022-12-18T09:02:53.202Z,215.75
2022-12-18T09:03:55.587Z,304.60
2022-12-18T09:04:58.025Z,185.00
2022-12-18T09:06:00.555Z,164.23
2022-12-18T09:07:03.816Z,124.05
2022-12-18T09:08:06.173Z,88.70
2022-12-18T09:09:08.566Z,66.53
2022-12-18T09:10:10.881Z,61.25
2022-12-18T09:11:22.677Z,62.95
2022-12-18T09:12:26.091Z,56.45
2022-12-18T09:13:28.543Z,55.88
2022-12-18T09:14:30.916Z,56.40
2022-12-18T09:15:33.230Z,51.63
2022-12-18T09:16:36.039Z,54.50
2022-12-18T09:17:38.531Z,53.47
2022-12-18T09:18:41.371Z,52.45
2022-12-18T09:19:44.303Z,51.60
2022-12-18T09:20:47.471Z,51.58
2022-12-18T09:21:49.809Z,50.53
2022-12-18T09:22:52.128Z,51.22
2022-12-18T09:23:56.045Z,51.35
2022-12-18T09:24:58.379Z,48.95
2022-12-18T09:26:00.810Z,48.28
2022-12-18T09:27:03.863Z,48.78
2022-12-18T09:28:11.216Z,49.58
2022-12-18T09:29:13.594Z,49.85
2022-12-18T09:30:15.961Z,47.83
2022-12-18T09:31:21.639Z,49.53
2022-12-18T09:32:24.767Z,46.25
2022-12-18T09:33:27.079Z,47.67
2022-12-18T09:34:29.481Z,47.13
2022-12-18T09:35:32.153Z,47.60
2022-12-18T09:36:34.717Z,45.30
2022-12-18T09:37:37.053Z,44.13
2022-12-18T09:38:39.896Z,47.67
2022-12-18T09:39:42.554Z,46.28
2022-12-18T09:41:00.629Z,45.10
2022-12-18T09:42:03.320Z,172.55
2022-12-18T09:43:07.566Z,87.57
2022-12-18T09:44:15.358Z,142.18
2022-12-18T09:45:18.968Z,84.50
2022-12-18T09:46:29.318Z,109.82
2022-12-18T09:47:40.104Z,92.93
2022-12-18T09:48:47.122Z,91.15
2022-12-18T09:49:57.164Z,97.72
2022-12-18T09:51:11.919Z,85.30
2022-12-18T09:52:30.964Z,82.35
2022-12-18T09:53:38.103Z,79.28
2022-12-18T09:54:41.908Z,77.15
2022-12-18T09:55:47.645Z,74.90
2022-12-18T09:56:50.079Z,75.50
2022-12-18T09:57:57.238Z,70.50
2022-12-18T09:59:01.203Z,66.32
2022-12-18T10:00:15.930Z,71.82
2022-12-18T10:01:24.021Z,68.20
2022-12-18T10:02:28.474Z,67.13
2022-12-18T10:03:30.991Z,60.38
2022-12-18T10:04:33.597Z,61.50
2022-12-18T10:06:00.254Z,58.72
2022-12-18T10:07:30.433Z,60.75
2022-12-18T10:08:39.686Z,64.53
2022-12-18T10:10:06.514Z,62.28
2022-12-18T10:11:40.859Z,62.78
2022-12-18T10:12:48.892Z,60.97
2022-12-18T10:14:11.725Z,62.15
2022-12-18T10:15:27.842Z,60.63
2022-12-18T10:16:58.569Z,60.35
2022-12-18T10:18:40.192Z,57.63
2022-12-18T10:19:50.421Z,56.30
2022-12-18T10:20:58.665Z,54.97
2022-12-18T10:22:42.303Z,57.22
2022-12-18T10:24:29.654Z,56.00
2022-12-18T10:25:34.815Z,56.55
2022-12-18T10:26:37.299Z,54.08
2022-12-18T10:27:39.775Z,56.30
2022-12-18T10:28:43.121Z,57.05
2022-12-18T10:29:47.150Z,56.47
2022-12-18T10:30:49.557Z,55.78
2022-12-18T10:31:52.619Z,53.70
2022-12-18T10:32:57.155Z,54.88
2022-12-18T10:33:59.595Z,54.80
2022-12-18T10:35:02.209Z,56.08
2022-12-18T10:36:05.864Z,52.97
2022-12-18T10:37:18.400Z,48.70
2022-12-18T10:38:23.720Z,63.63
2022-12-18T10:39:27.372Z,149.88
2022-12-18T10:40:30.377Z,117.45
2022-12-18T10:41:33.311Z,90.10
2022-12-18T10:42:36.214Z,72.97
2022-12-18T10:43:40.158Z,61.25
2022-12-18T10:44:42.758Z,61.75
2022-12-18T10:46:09.580Z,54.13
2022-12-18T10:47:21.174Z,56.55
2022-12-18T10:48:24.916Z,57.53
2022-12-18T10:49:30.425Z,59.75
2022-12-18T10:51:09.170Z,62.08
2022-12-18T10:52:19.254Z,57.58
2022-12-18T10:53:30.416Z,56.25
2022-12-18T10:55:40.703Z,58.40
2022-12-18T10:56:43.748Z,58.45
2022-12-18T10:57:47.135Z,57.97
2022-12-18T10:58:58.963Z,55.88
2022-12-18T11:00:35.047Z,57.78
2022-12-18T11:01:55.887Z,56.03
2022-12-18T11:02:58.955Z,54.03
2022-12-18T11:04:08.474Z,55.75
2022-12-18T11:05:55.980Z,54.58
2022-12-18T11:07:05.476Z,53.67
2022-12-18T11:08:23.676Z,54.47
2022-12-18T11:09:34.669Z,48.60
2022-12-18T11:10:38.728Z,51.38
2022-12-18T11:11:41.103Z,50.60
2022-12-18T11:12:43.449Z,144.35
2022-12-18T11:14:00.124Z,184.07
2022-12-18T11:15:02.622Z,143.65
2022-12-18T11:16:05.241Z,121.43
2022-12-18T11:17:32.491Z,75.60
2022-12-18T11:18:36.924Z,71.75
2022-12-18T11:19:41.942Z,60.28
2022-12-18T11:21:10.939Z,70.80
2022-12-18T11:22:36.093Z,71.75
2022-12-18T11:23:51.711Z,70.15
2022-12-18T11:26:36.732Z,64.28
2022-12-18T11:27:40.655Z,64.00
2022-12-18T11:28:52.686Z,70.28
2022-12-18T11:30:20.536Z,63.80
2022-12-18T11:31:25.414Z,64.07
2022-12-18T11:32:37.751Z,63.03
2022-12-18T11:34:04.898Z,64.85
2022-12-18T11:35:10.326Z,63.85
2022-12-18T11:36:13.736Z,60.88
2022-12-18T11:37:20.060Z,63.15
2022-12-18T11:38:28.097Z,64.03
2022-12-18T11:39:45.897Z,64.07
2022-12-18T11:40:57.641Z,60.03
2022-12-18T11:42:26.222Z,64.07
2022-12-18T11:43:33.865Z,61.97
2022-12-18T11:45:07.489Z,59.85
2022-12-18T11:46:24.181Z,35.03
2022-12-18T11:47:39.360Z,38.28
2022-12-18T11:48:56.629Z,40.50
2022-12-18T11:50:02.443Z,35.83
2022-12-18T11:51:11.149Z,34.60
2022-12-18T11:52:31.911Z,35.88
2022-12-18T11:53:34.480Z,34.87
2022-12-18T11:54:37.135Z,36.30
2022-12-18T11:56:16.868Z,34.40
2022-12-18T11:57:43.246Z,31.83
2022-12-18T11:59:10.169Z,27.80
2022-12-18T12:00:19.829Z,27.63
2022-12-18T12:01:24.935Z,28.02
2022-12-18T12:02:34.816Z,27.52
2022-12-18T12:03:49.579Z,25.15
2022-12-18T12:05:25.580Z,24.92
2022-12-18T12:06:34.897Z,23.25
2022-12-18T12:08:02.573Z,24.45
2022-12-18T12:09:26.147Z,24.38
2022-12-18T12:10:43.158Z,22.85
2022-12-18T12:11:51.329Z,24.15
2022-12-18T12:13:13.057Z,23.67
2022-12-18T12:14:36.347Z,22.13
2022-12-18T12:16:12.289Z,22.35
2022-12-18T12:17:22.704Z,21.95
2022-12-18T12:18:49.298Z,21.88
2022-12-18T12:20:16.796Z,21.67
2022-12-18T12:21:49.213Z,20.75
2022-12-18T12:23:27.364Z,20.05
2022-12-18T12:24:52.319Z,19.98
2022-12-18T12:26:01.194Z,20.10
2022-12-18T12:27:33.767Z,20.75
2022-12-18T12:28:51.639Z,20.33
2022-12-18T12:30:17.409Z,19.38
2022-12-18T12:31:38.229Z,19.00
2022-12-18T12:32:54.905Z,18.60
2022-12-18T12:34:00.770Z,18.40
2022-12-18T12:35:12.328Z,17.35
2022-12-18T12:36:47.789Z,18.10
2022-12-18T12:38:15.580Z,17.70
2022-12-18T12:39:22.612Z,17.30
2022-12-18T12:42:11.271Z,17.70
2022-12-18T12:43:32.114Z,17.08
2022-12-18T12:44:51.261Z,17.27
2022-12-18T12:46:05.209Z,17.55
2022-12-18T12:47:19.957Z,16.95
2022-12-18T12:48:28.398Z,17.45
2022-12-18T12:49:39.006Z,16.88
2022-12-18T12:50:43.678Z,15.93
2022-12-18T12:51:51.806Z,17.38
2022-12-18T12:52:56.712Z,17.58
2022-12-18T12:54:01.182Z,16.58
2022-12-18T12:55:13.078Z,16.02
2022-12-18T12:56:19.796Z,15.10
2022-12-18T12:57:34.370Z,16.60
2022-12-18T12:58:55.506Z,15.52
2022-12-18T13:00:11.188Z,16.45
2022-12-18T13:01:23.617Z,14.68
2022-12-18T13:02:48.489Z,14.80
2022-12-18T13:03:59.623Z,16.40
2022-12-18T13:05:07.434Z,16.13
2022-12-18T13:06:19.056Z,15.23
2022-12-18T13:08:31.207Z,14.25
2022-12-18T13:10:17.560Z,14.98
2022-12-18T13:12:05.593Z,14.73
2022-12-18T13:13:10.988Z,14.40
2022-12-18T13:14:23.730Z,14.13
2022-12-18T13:15:47.123Z,14.93
2022-12-18T13:16:49.687Z,15.70
2022-12-18T13:18:08.867Z,14.02
2022-12-18T13:19:26.322Z,14.38
2022-12-18T13:20:35.534Z,13.75
2022-12-18T13:21:37.911Z,13.27
2022-12-18T13:22:40.200Z,13.73
2022-12-18T13:23:43.405Z,15.80
2022-12-18T13:24:46.297Z,13.98
2022-12-18T13:25:49.455Z,14.55
2022-12-18T13:26:52.073Z,12.90
2022-12-18T13:28:00.836Z,13.95
2022-12-18T13:29:05.801Z,12.90
2022-12-18T13:30:34.137Z,12.75
2022-12-18T13:31:42.838Z,13.00
2022-12-18T13:32:45.848Z,11.65
2022-12-18T13:35:23.772Z,11.40
2022-12-18T13:36:29.852Z,11.63
2022-12-18T13:37:33.677Z,11.20
2022-12-18T13:38:41.409Z,10.02
2022-12-18T13:39:44.606Z,11.48
2022-12-18T13:40:47.125Z,11.30
2022-12-18T13:42:34.015Z,12.50
2022-12-18T13:44:10.685Z,10.07
2022-12-18T13:45:38.973Z,10.88
2022-12-18T13:46:50.426Z,10.35
2022-12-18T13:47:52.837Z,10.85
2022-12-18T13:48:57.082Z,10.40
2022-12-18T13:50:00.020Z,10.13
2022-12-18T13:51:09.707Z,10.63
2022-12-18T13:52:25.350Z,10.80
2022-12-18T13:53:33.838Z,11.27
2022-12-18T13:54:42.204Z,10.93
2022-12-18T13:55:46.483Z,10.75
2022-12-18T13:56:49.567Z,10.23
2022-12-18T13:58:05.549Z,11.30
2022-12-18T13:59:34.009Z,10.88
2022-12-18T14:00:36.785Z,10.55
2022-12-18T14:02:02.457Z,11.10
2022-12-18T14:03:22.416Z,10.93
2022-12-18T14:04:33.209Z,9.50
2022-12-18T14:05:40.166Z,11.80
2022-12-18T14:06:47.488Z,10.57
2022-12-18T14:07:50.485Z,12.52
2022-12-18T14:08:54.068Z,12.07
2022-12-18T14:10:41.941Z,10.48
2022-12-18T14:11:26.669Z,97.88
2022-12-18T14:12:51.770Z,162.40
2022-12-18T14:13:54.221Z,94.13
2022-12-18T14:14:57.172Z,76.65
2022-12-18T14:16:03.809Z,76.05
2022-12-18T14:17:11.413Z,61.75
2022-12-18T14:18:25.460Z,50.83
2022-12-18T14:19:28.844Z,38.15
2022-12-18T14:20:33.764Z,33.33
2022-12-18T14:21:38.235Z,29.92
2022-12-18T14:22:47.756Z,29.02
2022-12-18T14:24:03.356Z,26.13
2022-12-18T14:25:14.494Z,25.08
2022-12-18T14:26:31.634Z,24.42
2022-12-18T14:27:42.405Z,24.65
2022-12-18T14:28:45.711Z,24.75
2022-12-18T14:29:48.341Z,24.33
2022-12-18T14:30:51.305Z,22.10
2022-12-18T14:32:17.287Z,24.33
2022-12-18T14:33:23.517Z,22.73
2022-12-18T14:34:27.842Z,22.63
2022-12-18T14:35:30.685Z,22.10
2022-12-18T14:36:33.086Z,22.92
2022-12-18T14:37:36.376Z,23.23
2022-12-18T14:38:40.928Z,22.70
2022-12-18T14:39:54.320Z,21.90
2022-12-18T14:40:59.710Z,21.80
2022-12-18T14:42:02.128Z,21.20
2022-12-18T14:43:04.507Z,22.23
2022-12-18T14:44:11.877Z,22.00